Time;durP1;ratioP1;P1;durP2;ratioP2;P2;SDS_P1;SDS_P2;PMS_P1;PMS_P2;Temp;Humidity;BMP_temperature;BMP_pressure;BME280_temperature;BME280_humidity;BME280_pressure;Samples;Min_cycle;Max_cycle;Signal;HPM_P1;HPM_P2
2023/01/24 00:01:47;;;;;;;7.87;7.03;;;21.70;50.50;;;;;;4923601;29;20557;-68
2023/01/24 00:04:17;;;;;;;6.53;5.80;;;21.70;50.40;;;;;;4925561;29;20464;-68
2023/01/24 00:06:46;;;;;;;8.43;7.53;;;21.70;50.40;;;;;;4924814;29;20540;-68
2023/01/24 00:09:14;;;;;;;8.33;7.50;;;21.70;50.30;;;;;;4928120;29;20982;-68
2023/01/24 00:11:42;;;;;;;7.63;6.93;;;21.70;50.30;;;;;;4925066;29;20468;-68
2023/01/24 00:14:11;;;;;;;6.80;6.10;;;21.70;50.40;;;;;;4926017;29;20884;-69
2023/01/24 00:16:39;;;;;;;6.90;6.30;;;21.70;50.30;;;;;;4924065;29;20486;-68
2023/01/24 00:19:07;;;;;;;8.90;8.00;;;21.70;50.40;;;;;;4929888;29;20570;-68
2023/01/24 00:21:36;;;;;;;9.30;6.90;;;21.70;50.40;;;;;;4931520;29;21116;-68
2023/01/24 00:24:05;;;;;;;8.03;7.10;;;21.70;50.30;;;;;;4933516;29;20500;-68
2023/01/24 00:26:33;;;;;;;7.30;6.30;;;21.70;50.20;;;;;;4929459;29;20504;-68
2023/01/24 00:29:02;;;;;;;7.77;6.23;;;21.70;50.40;;;;;;4931059;29;20476;-68
2023/01/24 00:31:30;;;;;;;7.50;6.83;;;21.70;50.30;;;;;;4924616;29;20472;-68
2023/01/24 00:33:58;;;;;;;7.30;6.60;;;21.70;50.40;;;;;;4934101;29;20455;-68
2023/01/24 00:36:26;;;;;;;6.40;5.80;;;21.70;50.40;;;;;;4929017;29;20547;-68
2023/01/24 00:38:56;;;;;;;7.47;6.77;;;21.70;50.40;;;;;;4928890;29;20494;-68
2023/01/24 00:41:27;;;;;;;6.83;6.23;;;21.70;50.40;;;;;;4931815;29;20563;-68
2023/01/24 00:43:55;;;;;;;7.80;7.00;;;21.70;50.40;;;;;;4932030;29;20490;-68
2023/01/24 00:46:23;;;;;;;9.03;6.57;;;21.70;50.40;;;;;;4929444;29;20495;-68
2023/01/24 00:48:52;;;;;;;7.50;6.80;;;21.60;50.40;;;;;;4933019;29;20479;-68
2023/01/24 00:51:20;;;;;;;7.80;6.90;;;21.70;50.40;;;;;;4924226;29;20464;-68
2023/01/24 00:53:48;;;;;;;7.00;6.30;;;21.70;50.20;;;;;;4930982;29;20463;-68
2023/01/24 00:56:18;;;;;;;7.80;7.10;;;21.70;50.20;;;;;;4935197;29;20460;-68
2023/01/24 00:58:47;;;;;;;7.60;6.90;;;21.70;50.30;;;;;;4933292;29;20838;-68
2023/01/24 01:01:15;;;;;;;8.10;7.30;;;21.70;50.40;;;;;;4932529;29;22085;-68
2023/01/24 01:03:45;;;;;;;6.97;6.27;;;21.70;50.30;;;;;;4926608;29;20524;-68
2023/01/24 01:06:15;;;;;;;6.87;6.17;;;21.70;50.30;;;;;;4929948;29;20483;-68
2023/01/24 01:08:43;;;;;;;6.93;6.30;;;21.70;50.40;;;;;;4933934;29;20960;-68
2023/01/24 01:11:13;;;;;;;7.80;7.00;;;21.70;50.30;;;;;;4944890;29;20482;-68
2023/01/24 01:13:43;;;;;;;7.17;6.37;;;21.70;50.30;;;;;;4930584;29;20472;-68
2023/01/24 01:16:13;;;;;;;7.50;6.80;;;21.70;50.30;;;;;;4932124;29;20547;-68
2023/01/24 01:18:41;;;;;;;6.67;5.97;;;21.70;50.20;;;;;;4932990;29;20795;-68
2023/01/24 01:21:12;;;;;;;7.60;6.80;;;21.70;50.20;;;;;;4932881;29;20492;-68
2023/01/24 01:23:41;;;;;;;6.70;5.80;;;21.70;50.20;;;;;;4927238;29;20467;-68
2023/01/24 01:26:15;;;;;;;7.97;7.20;;;21.70;50.20;;;;;;4934372;29;20458;-68
2023/01/24 01:28:45;;;;;;;7.30;6.60;;;21.70;50.20;;;;;;4925454;29;20516;-68
2023/01/24 01:31:14;;;;;;;6.60;5.90;;;21.70;50.10;;;;;;4923586;29;20958;-68
2023/01/24 01:33:44;;;;;;;8.57;7.77;;;21.70;50.10;;;;;;4926688;29;20470;-68
2023/01/24 01:36:13;;;;;;;8.20;6.60;;;21.70;50.10;;;;;;4928790;29;20551;-68
2023/01/24 01:38:41;;;;;;;8.33;6.60;;;21.70;50.10;;;;;;4929020;29;20476;-68
2023/01/24 01:41:09;;;;;;;7.23;6.43;;;21.70;50.10;;;;;;4927310;29;20887;-68
2023/01/24 01:44:37;;;;;;;6.37;5.77;;;21.70;50.00;;;;;;4931602;29;20550;-68
2023/01/24 01:46:29;;;;;;;5.80;5.30;;;21.70;50.00;;;;;;4928229;29;21187;-68
2023/01/24 01:49:02;;;;;;;7.83;7.03;;;21.70;50.00;;;;;;4928188;29;20480;-68
2023/01/24 01:51:37;;;;;;;6.60;6.00;;;21.70;50.00;;;;;;4929067;29;20456;-73
2023/01/24 01:54:11;;;;;;;6.67;6.07;;;21.70;50.00;;;;;;4923227;29;20459;-68
2023/01/24 01:56:44;;;;;;;7.00;5.77;;;21.70;50.00;;;;;;4931392;29;20496;-68
2023/01/24 01:59:15;;;;;;;7.50;6.70;;;21.70;49.90;;;;;;4943229;29;21131;-68
2023/01/24 02:01:47;;;;;;;6.80;6.10;;;21.70;49.90;;;;;;4924460;29;20495;-68
2023/01/24 02:04:20;;;;;;;7.80;7.10;;;21.70;49.90;;;;;;4927414;29;20501;-68
2023/01/24 02:06:53;;;;;;;6.63;5.97;;;21.70;49.90;;;;;;4938927;29;20507;-68
2023/01/24 02:09:23;;;;;;;6.13;5.53;;;21.70;49.90;;;;;;4922417;29;20515;-68
2023/01/24 02:11:55;;;;;;;6.70;6.10;;;21.70;49.90;;;;;;4928570;29;21246;-68
2023/01/24 02:17:13;;;;;;;7.23;6.53;;;21.70;49.80;;;;;;4929166;29;20468;-69
2023/01/24 02:20:00;;;;;;;6.53;5.80;;;21.70;49.80;;;;;;4935681;28;20466;-68
2023/01/24 02:22:35;;;;;;;6.77;6.10;;;21.70;49.90;;;;;;4925431;29;20506;-68
2023/01/24 02:25:11;;;;;;;7.57;6.70;;;21.70;49.90;;;;;;4929619;29;20510;-68
2023/01/24 02:27:41;;;;;;;8.93;6.70;;;21.70;49.80;;;;;;4931400;29;20469;-68
2023/01/24 02:30:10;;;;;;;7.50;6.80;;;21.70;49.80;;;;;;4931762;29;20479;-68
2023/01/24 02:32:39;;;;;;;6.40;5.80;;;21.70;49.80;;;;;;4927789;29;20471;-68
2023/01/24 02:35:08;;;;;;;7.10;6.50;;;21.70;49.70;;;;;;4928150;29;20465;-68
2023/01/24 02:37:37;;;;;;;7.70;6.27;;;21.70;49.70;;;;;;4924844;29;20941;-68
2023/01/24 02:40:08;;;;;;;6.80;6.20;;;21.70;49.70;;;;;;4930689;29;20465;-68
2023/01/24 02:42:38;;;;;;;6.67;6.00;;;21.70;49.70;;;;;;4929807;29;20455;-68
2023/01/24 02:45:14;;;;;;;6.73;6.13;;;21.70;49.70;;;;;;4923524;29;20961;-69
2023/01/24 02:47:47;;;;;;;6.07;5.57;;;21.70;49.70;;;;;;4926132;29;20492;-68
2023/01/24 02:50:16;;;;;;;6.53;5.93;;;21.70;49.70;;;;;;4922948;29;20479;-67
2023/01/24 02:55:30;;;;;;;7.57;6.87;;;21.70;49.70;;;;;;4921681;29;20467;-68
2023/01/24 02:58:06;;;;;;;7.67;6.97;;;21.70;49.70;;;;;;4929197;29;20582;-67
2023/01/24 03:00:42;;;;;;;7.43;6.73;;;21.70;49.90;;;;;;4924868;29;20484;-68
2023/01/24 03:03:13;;;;;;;6.87;6.00;;;21.70;49.80;;;;;;4927868;29;20471;-68
2023/01/24 03:05:56;;;;;;;8.10;7.00;;;21.70;49.90;;;;;;4930472;29;20684;-68
2023/01/24 03:08:32;;;;;;;6.23;5.70;;;21.70;49.70;;;;;;4929363;29;20454;-68
2023/01/24 03:11:03;;;;;;;7.00;6.30;;;21.70;49.70;;;;;;4932540;29;20483;-67
2023/01/24 03:35:58;;;;;;;6.80;6.20;;;21.70;49.80;;;;;;4933410;29;20959;-68
2023/01/24 03:41:17;;;;;;;7.13;5.80;;;21.70;49.70;;;;;;4924537;29;20490;-67
2023/01/24 03:43:45;;;;;;;6.97;6.27;;;21.70;49.70;;;;;;4935223;29;20467;-68
2023/01/24 03:46:14;;;;;;;5.93;5.40;;;21.70;49.60;;;;;;4934384;29;20470;-68
2023/01/24 03:48:48;;;;;;;6.50;5.97;;;21.70;49.60;;;;;;4930605;29;20459;-68
2023/01/24 03:54:03;;;;;;;7.10;6.00;;;21.70;49.60;;;;;;4930357;29;20491;-67
2023/01/24 03:56:43;;;;;;;7.17;6.53;;;21.70;49.60;;;;;;4920773;29;20492;-68
2023/01/24 03:59:12;;;;;;;6.70;6.10;;;21.70;49.60;;;;;;4930036;29;20536;-68
2023/01/24 04:01:41;;;;;;;6.67;5.97;;;21.70;49.60;;;;;;4932127;29;21783;-68
2023/01/24 04:04:18;;;;;;;6.07;5.47;;;21.70;49.60;;;;;;4929602;29;20482;-68
2023/01/24 04:06:46;;;;;;;6.83;6.23;;;21.70;49.70;;;;;;4928316;29;20817;-67
2023/01/24 04:09:16;;;;;;;6.63;6.03;;;21.70;49.70;;;;;;4932020;29;20510;-67
2023/01/24 04:11:44;;;;;;;5.23;4.73;;;21.70;49.60;;;;;;4920606;29;20962;-68
2023/01/24 04:14:18;;;;;;;7.47;6.77;;;21.70;49.60;;;;;;4933012;29;20495;-69
2023/01/24 04:17:01;;;;;;;6.43;5.70;;;21.70;49.60;;;;;;4927949;29;20750;-68
2023/01/24 04:19:40;;;;;;;5.93;5.43;;;21.70;49.60;;;;;;4931772;29;20474;-68
2023/01/24 04:22:08;;;;;;;6.93;6.23;;;21.70;49.60;;;;;;4929417;29;20458;-67
2023/01/24 04:24:38;;;;;;;6.03;5.53;;;21.70;49.60;;;;;;4934749;29;20514;-67
2023/01/24 04:27:06;;;;;;;6.20;5.60;;;21.70;49.60;;;;;;4933274;29;20464;-68
2023/01/24 04:29:46;;;;;;;7.30;5.60;;;21.70;49.60;;;;;;4948188;29;20475;-68
2023/01/24 04:32:15;;;;;;;6.77;6.17;;;21.70;49.50;;;;;;4923602;29;20489;-68
2023/01/24 04:35:03;;;;;;;6.30;5.70;;;21.70;49.50;;;;;;4932950;29;20486;-68
2023/01/24 04:37:48;;;;;;;7.33;6.63;;;21.70;49.60;;;;;;4931535;29;20462;-68
2023/01/24 04:40:22;;;;;;;6.80;6.20;;;21.70;49.50;;;;;;4936897;29;20548;-68
2023/01/24 04:42:51;;;;;;;7.83;6.93;;;21.70;49.50;;;;;;4933539;29;20460;-69
2023/01/24 04:45:19;;;;;;;7.27;6.57;;;21.70;49.50;;;;;;4934157;29;20475;-68
2023/01/24 04:47:47;;;;;;;7.30;6.60;;;21.70;49.50;;;;;;4932992;29;20571;-68
2023/01/24 04:50:18;;;;;;;6.37;5.73;;;21.70;49.50;;;;;;4921921;29;20461;-68
2023/01/24 04:52:46;;;;;;;6.33;5.73;;;21.70;49.50;;;;;;4926060;29;20533;-68
2023/01/24 04:55:14;;;;;;;7.37;6.77;;;21.70;49.50;;;;;;4921077;29;20471;-69
2023/01/24 04:57:43;;;;;;;6.30;5.70;;;21.70;49.60;;;;;;4933634;29;20504;-68
2023/01/24 05:00:12;;;;;;;7.60;6.90;;;21.70;49.60;;;;;;4926928;29;20528;-67
2023/01/24 05:02:41;;;;;;;8.30;5.87;;;21.70;49.50;;;;;;4947074;29;20835;-68
2023/01/24 05:05:10;;;;;;;7.13;6.20;;;21.70;49.50;;;;;;4930836;29;20466;-68
2023/01/24 05:07:39;;;;;;;6.83;6.23;;;21.70;49.50;;;;;;4929554;29;20484;-68
2023/01/24 05:10:13;;;;;;;5.97;5.37;;;21.70;49.50;;;;;;4923410;29;20934;-68
2023/01/24 05:12:42;;;;;;;6.93;5.93;;;21.70;49.50;;;;;;4932325;29;20502;-68
2023/01/24 05:15:17;;;;;;;6.27;5.67;;;21.70;49.50;;;;;;4927432;29;20496;-67
2023/01/24 05:17:46;;;;;;;6.10;5.50;;;21.70;49.60;;;;;;4931455;29;21047;-68
2023/01/24 05:20:18;;;;;;;5.67;5.17;;;21.70;49.60;;;;;;4927361;29;20464;-68
2023/01/24 05:22:48;;;;;;;6.60;6.00;;;21.70;49.60;;;;;;4941907;29;21081;-68
2023/01/24 05:25:18;;;;;;;6.20;5.70;;;21.70;49.60;;;;;;4931287;29;20586;-68
2023/01/24 05:27:46;;;;;;;7.57;6.90;;;21.70;49.60;;;;;;4929806;29;20467;-68
2023/01/24 05:30:16;;;;;;;6.47;5.87;;;21.70;49.70;;;;;;4917382;29;20475;-68
2023/01/24 05:32:45;;;;;;;6.70;6.07;;;21.70;49.70;;;;;;4943200;28;20508;-68
2023/01/24 05:35:15;;;;;;;6.50;5.90;;;21.70;49.70;;;;;;4918858;29;20469;-68
2023/01/24 05:37:44;;;;;;;6.73;6.07;;;21.70;49.70;;;;;;4931056;29;20466;-68
2023/01/24 05:40:16;;;;;;;6.73;6.03;;;21.70;49.80;;;;;;4927689;29;20627;-68
2023/01/24 05:42:44;;;;;;;6.40;5.80;;;21.70;49.80;;;;;;4939687;29;20464;-67
2023/01/24 05:45:13;;;;;;;6.90;6.20;;;21.70;49.80;;;;;;4934526;29;20528;-72
2023/01/24 05:47:41;;;;;;;6.13;5.53;;;21.70;49.90;;;;;;4930359;29;20483;-67
2023/01/24 05:50:15;;;;;;;6.00;5.50;;;21.70;50.00;;;;;;4917405;29;20460;-67
2023/01/24 05:52:44;;;;;;;6.17;5.57;;;21.70;50.10;;;;;;4921643;29;20571;-67
2023/01/24 05:55:12;;;;;;;6.00;5.40;;;21.70;50.20;;;;;;4922488;29;20468;-68
2023/01/24 05:57:48;;;;;;;5.70;5.10;;;21.70;50.30;;;;;;4924989;29;20794;-68
2023/01/24 06:00:17;;;;;;;6.37;5.10;;;21.70;50.30;;;;;;4925883;29;20462;-67
2023/01/24 06:03:05;;;;;;;6.60;5.20;;;21.70;50.30;;;;;;4930350;29;20468;-68
2023/01/24 06:05:34;;;;;;;9.80;5.80;;;21.70;50.40;;;;;;4927509;29;21819;-68
2023/01/24 06:08:02;;;;;;;7.73;5.33;;;21.70;50.40;;;;;;4927679;29;20471;-68
2023/01/24 06:10:30;;;;;;;5.87;5.37;;;21.70;50.40;;;;;;4929522;29;20528;-68
2023/01/24 06:13:06;;;;;;;6.33;5.50;;;21.70;50.50;;;;;;4930635;29;20480;-68
2023/01/24 06:15:35;;;;;;;6.67;5.97;;;21.70;50.50;;;;;;4926639;29;20555;-68
2023/01/24 06:18:04;;;;;;;6.07;5.57;;;21.70;50.60;;;;;;4935620;28;20480;-69
2023/01/24 06:20:33;;;;;;;6.03;5.40;;;21.70;50.60;;;;;;4924697;29;20459;-68
2023/01/24 06:23:04;;;;;;;6.17;4.97;;;21.70;50.80;;;;;;4927605;29;20464;-68
2023/01/24 06:25:38;;;;;;;6.27;5.60;;;21.70;50.90;;;;;;4928612;29;20472;-68
2023/01/24 06:28:09;;;;;;;6.13;5.10;;;21.60;50.90;;;;;;4929955;29;20558;-68
2023/01/24 06:30:42;;;;;;;6.53;5.87;;;21.60;51.00;;;;;;4924418;29;20470;-68
2023/01/24 06:33:23;;;;;;;15.73;6.23;;;21.60;51.10;;;;;;4924005;29;21000;-69
2023/01/24 06:36:09;;;;;;;5.40;4.90;;;21.60;51.10;;;;;;4925484;29;20468;-68
2023/01/24 06:38:38;;;;;;;5.60;4.90;;;21.60;51.20;;;;;;4930808;29;20463;-68
2023/01/24 06:41:14;;;;;;;6.40;4.97;;;21.60;51.20;;;;;;4929722;29;20483;-68
2023/01/24 06:43:45;;;;;;;5.87;5.37;;;21.60;51.20;;;;;;4927850;29;20468;-68
2023/01/24 06:46:14;;;;;;;7.30;5.60;;;21.60;51.30;;;;;;4927682;29;20947;-67
2023/01/24 06:48:46;;;;;;;8.40;5.60;;;21.60;51.30;;;;;;4923676;29;20932;-67
2023/01/24 06:51:14;;;;;;;6.17;5.57;;;21.60;51.30;;;;;;4923722;29;20456;-68
2023/01/24 06:53:42;;;;;;;8.93;5.50;;;21.60;51.30;;;;;;4925742;29;20504;-67
2023/01/24 06:56:11;;;;;;;5.73;5.20;;;21.60;51.30;;;;;;4922568;29;20740;-67
2023/01/24 06:58:39;;;;;;;5.53;5.03;;;21.60;51.30;;;;;;4926739;29;20504;-67
2023/01/24 07:01:09;;;;;;;5.30;4.77;;;21.60;51.30;;;;;;4927964;29;20498;-68
2023/01/24 07:03:37;;;;;;;6.27;5.40;;;21.60;51.30;;;;;;4923581;29;20472;-68
2023/01/24 07:06:06;;;;;;;5.97;5.37;;;21.60;51.40;;;;;;4930019;29;20486;-68
2023/01/24 07:08:34;;;;;;;5.90;5.27;;;21.60;51.40;;;;;;4921964;29;20890;-69
2023/01/24 07:11:02;;;;;;;7.10;5.17;;;21.60;51.40;;;;;;4926719;29;20472;-68
2023/01/24 07:13:30;;;;;;;9.73;6.10;;;21.60;51.90;;;;;;4929572;29;20487;-68
2023/01/24 07:16:02;;;;;;;6.80;5.30;;;21.60;52.50;;;;;;4926051;29;20594;-68
2023/01/24 07:18:32;;;;;;;6.77;5.50;;;21.60;52.90;;;;;;4930497;29;20489;-68
2023/01/24 07:21:00;;;;;;;7.97;5.63;;;21.70;53.00;;;;;;4929786;29;20473;-67
2023/01/24 07:23:31;;;;;;;5.60;5.10;;;21.70;53.10;;;;;;4929511;29;20469;-67
2023/01/24 07:25:59;;;;;;;7.30;5.97;;;21.70;53.20;;;;;;4932875;29;20843;-68
2023/01/24 07:28:27;;;;;;;6.13;5.30;;;21.70;53.30;;;;;;4934476;29;20506;-67
2023/01/24 07:30:56;;;;;;;6.17;5.57;;;21.70;53.20;;;;;;4930006;29;20456;-68
2023/01/24 07:33:24;;;;;;;6.03;5.20;;;21.70;53.00;;;;;;4930429;29;20517;-68
2023/01/24 07:35:54;;;;;;;6.40;5.80;;;21.70;52.90;;;;;;4920839;29;20467;-68
2023/01/24 07:38:22;;;;;;;6.50;5.50;;;21.70;52.80;;;;;;4931480;29;20475;-67
2023/01/24 07:40:50;;;;;;;6.00;5.50;;;21.70;52.60;;;;;;4927246;29;20495;-67
2023/01/24 07:43:20;;;;;;;7.10;6.40;;;21.70;52.60;;;;;;4929055;29;20514;-67
2023/01/24 07:45:48;;;;;;;6.60;4.83;;;21.70;52.50;;;;;;4928769;29;20516;-67
2023/01/24 07:48:20;;;;;;;6.57;5.27;;;21.70;52.40;;;;;;4923118;29;20459;-68
2023/01/24 07:50:49;;;;;;;5.27;4.67;;;21.70;52.30;;;;;;4918977;29;20460;-67
2023/01/24 07:53:19;;;;;;;7.70;5.70;;;21.70;52.30;;;;;;4921944;29;20474;-67
2023/01/24 07:55:47;;;;;;;6.13;5.30;;;21.60;52.30;;;;;;4921902;29;20965;-68
2023/01/24 07:58:29;;;;;;;6.50;5.97;;;21.60;52.30;;;;;;4923067;29;20666;-68
2023/01/24 08:00:58;;;;;;;7.00;6.17;;;21.60;52.30;;;;;;4921119;29;20579;-68
2023/01/24 08:03:26;;;;;;;6.07;5.10;;;21.60;52.40;;;;;;4923197;29;20463;-68
2023/01/24 08:05:54;;;;;;;5.30;4.50;;;21.60;52.40;;;;;;4919129;29;20468;-68
2023/01/24 08:08:24;;;;;;;6.40;5.90;;;21.60;52.40;;;;;;4920774;29;20464;-68
2023/01/24 08:10:52;;;;;;;8.63;5.63;;;21.60;52.70;;;;;;4916270;29;21576;-67
2023/01/24 08:13:21;;;;;;;10.20;7.57;;;21.60;53.30;;;;;;4924249;29;20500;-68
2023/01/24 08:15:50;;;;;;;18.33;11.23;;;21.70;54.40;;;;;;4922626;29;20488;-66
2023/01/24 08:18:18;;;;;;;11.50;8.73;;;21.70;55.20;;;;;;4919808;29;20464;-67
2023/01/24 08:20:48;;;;;;;18.77;12.40;;;21.80;55.80;;;;;;4921154;29;20465;-67
2023/01/24 08:23:16;;;;;;;32.87;21.23;;;21.80;56.00;;;;;;4921231;29;20955;-67
2023/01/24 08:25:46;;;;;;;26.00;16.40;;;21.80;55.80;;;;;;4919620;29;20523;-67
2023/01/24 08:28:14;;;;;;;16.57;11.50;;;21.90;55.90;;;;;;4923589;29;20470;-71
2023/01/24 08:30:42;;;;;;;16.70;10.00;;;21.90;55.60;;;;;;4922983;29;20469;-68
2023/01/24 08:33:17;;;;;;;14.63;8.50;;;22.00;54.70;;;;;;4927583;29;20475;-67
2023/01/24 08:35:45;;;;;;;213.40;126.13;;;22.00;54.90;;;;;;4928495;29;20496;-68
2023/01/24 08:38:14;;;;;;;32.27;19.80;;;22.00;55.40;;;;;;4932135;29;20502;-68
2023/01/24 08:40:42;;;;;;;17.50;12.53;;;22.00;54.90;;;;;;4933380;29;20492;-67
2023/01/24 08:43:18;;;;;;;21.20;12.97;;;22.00;54.40;;;;;;4928914;29;20927;-66
2023/01/24 08:45:47;;;;;;;17.87;9.83;;;22.10;53.80;;;;;;4928348;29;20454;-66
2023/01/24 08:48:15;;;;;;;11.83;8.90;;;22.10;53.50;;;;;;4922458;29;20540;-65
2023/01/24 08:50:43;;;;;;;12.20;9.33;;;22.10;53.30;;;;;;4921387;29;20477;-68
2023/01/24 08:53:12;;;;;;;9.93;7.90;;;22.10;53.20;;;;;;4928110;29;20483;-66
2023/01/24 08:55:40;;;;;;;191.80;103.27;;;22.10;53.10;;;;;;4928903;29;20457;-66
2023/01/24 08:58:09;;;;;;;159.10;92.07;;;22.10;53.60;;;;;;4925695;29;20466;-65
2023/01/24 09:00:38;;;;;;;46.33;23.87;;;22.10;53.80;;;;;;4927935;29;20461;-66
2023/01/24 09:03:06;;;;;;;29.10;19.27;;;22.10;52.80;;;;;;4927748;29;20470;-65
2023/01/24 09:05:36;;;;;;;22.07;15.97;;;22.10;52.70;;;;;;4926286;29;20518;-66
2023/01/24 09:08:05;;;;;;;19.20;12.43;;;22.10;52.50;;;;;;4925155;29;20599;-66
2023/01/24 09:10:33;;;;;;;17.43;11.13;;;22.10;52.40;;;;;;4928794;29;20563;-66
2023/01/24 09:13:02;;;;;;;17.27;10.30;;;22.10;52.20;;;;;;4942694;28;20473;-65
2023/01/24 09:15:30;;;;;;;16.63;9.60;;;22.10;52.10;;;;;;4928169;29;20574;-66
2023/01/24 09:18:03;;;;;;;11.57;8.80;;;22.10;52.00;;;;;;4922989;29;20798;-66
2023/01/24 09:20:31;;;;;;;10.43;7.33;;;22.10;51.90;;;;;;4929252;29;20473;-66
2023/01/24 09:22:59;;;;;;;11.23;7.20;;;22.10;52.20;;;;;;4927704;29;20499;-66
2023/01/24 09:25:30;;;;;;;11.43;7.77;;;22.10;51.80;;;;;;4931573;29;20496;-65
2023/01/24 09:27:58;;;;;;;8.63;6.00;;;22.20;51.60;;;;;;4930419;29;20482;-66
2023/01/24 09:30:26;;;;;;;8.17;6.60;;;22.20;51.50;;;;;;4929903;29;20472;-66
2023/01/24 09:32:55;;;;;;;7.50;5.80;;;22.20;51.40;;;;;;4930711;29;20473;-65
2023/01/24 09:35:28;;;;;;;6.53;5.53;;;22.20;51.30;;;;;;4931734;29;20480;-66
2023/01/24 09:37:56;;;;;;;8.97;5.83;;;22.20;51.20;;;;;;4930055;29;20460;-66
2023/01/24 09:40:27;;;;;;;6.20;5.40;;;22.20;51.10;;;;;;4929503;29;20543;-66
2023/01/24 09:43:04;;;;;;;7.17;5.47;;;22.20;51.00;;;;;;4926388;29;21035;-67
2023/01/24 09:45:37;;;;;;;6.73;4.87;;;22.20;50.90;;;;;;4926292;29;20556;-66
2023/01/24 09:48:11;;;;;;;6.47;5.00;;;22.20;50.90;;;;;;4923071;29;20493;-67
2023/01/24 09:50:46;;;;;;;5.67;5.00;;;22.30;50.80;;;;;;4919673;29;20587;-66
2023/01/24 09:53:20;;;;;;;5.70;4.67;;;22.30;50.70;;;;;;4930195;29;20554;-66
2023/01/24 09:55:48;;;;;;;4.17;3.77;;;22.30;50.60;;;;;;4930149;29;20870;-65
2023/01/24 09:58:31;;;;;;;5.60;4.50;;;22.30;50.60;;;;;;4924242;29;20519;-66
2023/01/24 10:01:01;;;;;;;4.70;4.30;;;22.30;50.50;;;;;;4928607;29;20500;-67
2023/01/24 10:03:29;;;;;;;5.60;4.30;;;22.40;50.60;;;;;;4929002;29;20551;-66
2023/01/24 10:06:06;;;;;;;4.70;4.30;;;22.40;50.70;;;;;;4928025;29;20466;-67
2023/01/24 10:08:38;;;;;;;4.93;4.40;;;22.40;50.60;;;;;;4928541;29;20473;-67
2023/01/24 10:11:20;;;;;;;5.47;4.80;;;22.40;50.50;;;;;;4931019;29;20595;-63
2023/01/24 10:14:16;;;;;;;3.93;3.53;;;22.40;50.50;;;;;;4923268;29;20685;-64
2023/01/24 10:17:22;;;;;;;4.93;4.10;;;22.40;50.40;;;;;;4926099;29;20496;-64
2023/01/24 10:20:14;;;;;;;4.47;4.03;;;22.40;50.40;;;;;;4925067;29;20499;-64
2023/01/24 10:23:00;;;;;;;5.10;4.03;;;22.40;50.40;;;;;;4922164;29;21039;-63
2023/01/24 10:25:32;;;;;;;3.73;3.43;;;22.40;50.40;;;;;;4928627;29;20483;-63
2023/01/24 10:28:02;;;;;;;4.10;3.80;;;22.40;50.40;;;;;;4921313;29;20568;-64
2023/01/24 10:30:39;;;;;;;4.47;3.90;;;22.40;50.40;;;;;;4928299;29;20557;-64
2023/01/24 10:33:15;;;;;;;4.27;3.80;;;22.40;50.30;;;;;;4926973;29;20460;-64
2023/01/24 10:35:54;;;;;;;3.63;3.43;;;22.40;50.30;;;;;;4926230;29;20839;-64
2023/01/24 10:38:24;;;;;;;4.63;3.90;;;22.40;50.40;;;;;;4927422;29;20567;-64
2023/01/24 10:40:55;;;;;;;3.73;3.43;;;22.40;50.30;;;;;;4922764;29;20576;-64
2023/01/24 10:43:26;;;;;;;4.23;3.80;;;22.50;50.30;;;;;;4927162;29;20572;-64
2023/01/24 10:46:07;;;;;;;4.77;4.37;;;22.50;50.20;;;;;;4926047;29;20943;-63
2023/01/24 10:48:41;;;;;;;4.17;3.87;;;22.50;50.20;;;;;;4926533;29;20488;-63
2023/01/24 10:51:16;;;;;;;3.53;3.23;;;22.50;50.10;;;;;;4927338;29;20531;-64
2023/01/24 10:53:46;;;;;;;3.83;3.53;;;22.50;50.10;;;;;;4925266;29;20471;-64
2023/01/24 10:56:17;;;;;;;4.17;3.77;;;22.60;50.10;;;;;;4924478;29;20465;-64
2023/01/24 10:58:56;;;;;;;3.93;3.53;;;22.60;50.00;;;;;;4927939;29;20951;-64
2023/01/24 11:01:32;;;;;;;3.77;3.47;;;22.60;49.90;;;;;;4928940;29;20486;-63
2023/01/24 11:04:15;;;;;;;4.10;3.70;;;22.60;49.80;;;;;;4923902;29;20467;-63
2023/01/24 11:06:47;;;;;;;4.17;3.77;;;22.60;49.80;;;;;;4929869;29;20541;-64
2023/01/24 11:09:20;;;;;;;4.00;3.70;;;22.70;49.70;;;;;;4926330;29;20501;-64
2023/01/24 11:11:50;;;;;;;3.53;3.23;;;22.70;49.70;;;;;;4929189;29;20635;-64
2023/01/24 11:14:21;;;;;;;3.43;3.13;;;22.70;49.60;;;;;;4924888;29;21011;-63
2023/01/24 11:16:52;;;;;;;4.07;3.50;;;22.70;49.50;;;;;;4928269;29;20555;-63
2023/01/24 11:19:28;;;;;;;4.30;3.90;;;22.70;49.50;;;;;;4927585;29;20494;-64
2023/01/24 11:21:58;;;;;;;3.60;3.30;;;22.70;49.50;;;;;;4924540;29;20988;-64
2023/01/24 11:24:28;;;;;;;3.60;3.30;;;22.70;49.50;;;;;;4922629;29;20458;-64
2023/01/24 11:27:02;;;;;;;4.20;3.80;;;22.70;49.50;;;;;;4925148;29;20480;-64
2023/01/24 11:29:32;;;;;;;3.53;3.23;;;22.70;49.50;;;;;;4920498;29;20492;-64
2023/01/24 11:32:17;;;;;;;3.67;3.37;;;22.70;49.50;;;;;;4925758;29;20459;-65
2023/01/24 11:34:51;;;;;;;3.70;3.50;;;22.70;49.50;;;;;;4926573;29;20564;-64
2023/01/24 11:37:37;;;;;;;6.17;3.70;;;22.70;49.50;;;;;;4929798;29;20472;-64
2023/01/24 11:40:22;;;;;;;3.83;3.53;;;22.70;49.50;;;;;;4932607;29;20917;-64
2023/01/24 11:43:03;;;;;;;3.77;3.43;;;22.60;49.40;;;;;;4932213;29;20863;-65
2023/01/24 11:45:41;;;;;;;2.90;2.67;;;22.60;49.70;;;;;;4924244;29;20493;-69
2023/01/24 11:48:20;;;;;;;5.33;3.97;;;22.60;50.00;;;;;;4932216;29;20551;-68
2023/01/24 11:51:05;;;;;;;5.67;3.30;;;22.60;49.70;;;;;;4925244;29;20523;-70
2023/01/24 11:53:57;;;;;;;5.20;3.47;;;22.50;50.00;;;;;;4925102;29;20545;-66
2023/01/24 11:56:36;;;;;;;4.33;3.43;;;22.50;50.00;;;;;;4930412;29;20560;-65
2023/01/24 11:59:23;;;;;;;3.63;3.37;;;22.50;50.00;;;;;;4926638;29;20459;-67
2023/01/24 12:01:58;;;;;;;3.73;3.43;;;22.50;49.70;;;;;;4918367;29;20919;-67
2023/01/24 12:04:59;;;;;;;4.13;3.73;;;22.50;49.50;;;;;;4926964;29;20460;-67
2023/01/24 12:07:32;;;;;;;3.00;2.80;;;22.50;49.50;;;;;;4927700;29;20512;-67
2023/01/24 12:10:12;;;;;;;3.73;3.43;;;22.50;49.40;;;;;;4930256;29;20582;-67
2023/01/24 12:12:47;;;;;;;3.43;3.23;;;22.50;49.30;;;;;;4934538;29;20540;-67
2023/01/24 12:15:34;;;;;;;3.63;3.33;;;22.40;49.20;;;;;;4934760;29;20484;-67
2023/01/24 12:18:22;;;;;;;3.03;2.73;;;22.40;49.30;;;;;;4933090;29;20918;-67
2023/01/24 12:20:59;;;;;;;4.43;3.40;;;22.40;49.40;;;;;;4927074;29;20543;-67
2023/01/24 12:23:35;;;;;;;3.50;3.10;;;22.40;49.40;;;;;;4929143;29;20491;-67
2023/01/24 12:26:10;;;;;;;4.53;3.80;;;22.40;49.30;;;;;;4924799;29;20776;-67
2023/01/24 12:28:45;;;;;;;3.30;2.90;;;22.40;49.20;;;;;;4932205;29;20455;-67
2023/01/24 12:31:18;;;;;;;5.60;3.93;;;22.40;49.10;;;;;;4928502;29;20575;-66
2023/01/24 12:33:52;;;;;;;4.67;4.27;;;22.40;49.00;;;;;;4937250;29;21263;-67
2023/01/24 12:36:33;;;;;;;3.43;3.13;;;22.40;49.00;;;;;;4927827;29;20571;-66
2023/01/24 12:39:09;;;;;;;3.73;3.43;;;22.40;49.10;;;;;;4927973;29;20576;-67
2023/01/24 12:41:38;;;;;;;3.50;3.20;;;22.40;49.30;;;;;;4927513;29;20873;-67
2023/01/24 12:44:24;;;;;;;3.13;2.93;;;22.30;49.50;;;;;;4920967;29;20591;-66
2023/01/24 12:47:22;;;;;;;3.77;3.47;;;22.30;49.70;;;;;;4924124;29;20467;-67
2023/01/24 12:50:13;;;;;;;3.43;3.13;;;22.30;49.80;;;;;;4913838;29;20963;-67
2023/01/24 12:52:47;;;;;;;3.33;3.03;;;22.30;49.90;;;;;;4925432;29;20468;-67
2023/01/24 12:55:23;;;;;;;3.30;3.00;;;22.30;49.90;;;;;;4924632;29;20575;-67
2023/01/24 12:57:59;;;;;;;3.50;3.17;;;22.20;50.00;;;;;;4926820;29;20527;-67
2023/01/24 13:00:43;;;;;;;5.67;3.40;;;22.20;50.10;;;;;;4928814;29;20456;-67
2023/01/24 13:03:29;;;;;;;3.40;3.10;;;22.20;50.20;;;;;;4927989;29;20462;-67
2023/01/24 13:06:08;;;;;;;2.73;2.53;;;22.20;50.30;;;;;;4921330;29;20476;-66
2023/01/24 13:08:48;;;;;;;3.67;3.37;;;22.20;50.40;;;;;;4932266;29;20553;-66
2023/01/24 13:11:21;;;;;;;3.90;3.20;;;22.20;50.50;;;;;;4927172;29;20463;-66
2023/01/24 13:14:05;;;;;;;3.67;3.37;;;22.20;50.60;;;;;;4927092;29;20473;-67
2023/01/24 13:17:02;;;;;;;4.17;3.43;;;22.20;50.60;;;;;;4932769;29;20501;-66
2023/01/24 13:19:46;;;;;;;3.20;2.97;;;22.20;50.70;;;;;;4929725;29;20544;-66
2023/01/24 13:22:36;;;;;;;3.33;3.03;;;22.20;50.70;;;;;;4928093;29;20465;-66
2023/01/24 13:25:33;;;;;;;4.17;3.30;;;22.20;50.70;;;;;;4926709;29;20543;-66
2023/01/24 13:28:11;;;;;;;4.00;3.60;;;22.20;50.80;;;;;;4924135;29;20472;-66
2023/01/24 13:30:47;;;;;;;6.07;3.30;;;22.20;50.80;;;;;;4921447;29;21296;-65
2023/01/24 13:33:26;;;;;;;4.37;3.67;;;22.20;50.80;;;;;;4927047;29;20884;-64
2023/01/24 13:35:55;;;;;;;7.13;2.97;;;22.20;51.00;;;;;;4922782;29;20567;-63
2023/01/24 13:38:26;;;;;;;3.80;3.20;;;22.30;51.30;;;;;;4920285;29;20462;-63
2023/01/24 13:41:00;;;;;;;4.07;3.57;;;22.30;51.50;;;;;;4928974;29;20490;-62
2023/01/24 13:43:55;;;;;;;3.33;3.03;;;22.40;51.40;;;;;;4922317;29;20799;-64
2023/01/24 13:46:57;;;;;;;3.73;3.23;;;22.40;51.40;;;;;;4917675;29;21005;-63
2023/01/24 13:50:03;;;;;;;4.20;3.80;;;22.50;51.40;;;;;;4921081;29;20480;-63